Time;durP1;ratioP1;P1;durP2;ratioP2;P2;SDS_P1;SDS_P2;PMS_P1;PMS_P2;Temp;Humidity;BMP_temperature;BMP_pressure;BME280_temperature;BME280_humidity;BME280_pressure;Samples;Min_cycle;Max_cycle;Signal;HPM_P1;HPM_P2
2022/10/07 00:01:16;;;;;;;17.83;5.47;;;;;;;;;;4979190;28;20022;-63
2022/10/07 00:03:42;;;;;;;11.05;3.97;;;;;;;;;;4983833;28;20034;-61
2022/10/07 00:06:16;;;;;;;12.93;4.90;;;;;;;;;;4979368;28;20014;-62
2022/10/07 00:08:45;;;;;;;13.00;4.13;;;;;;;;;;4983411;28;20030;-60
2022/10/07 00:11:20;;;;;;;8.98;4.28;;;;;;;;;;4984472;28;20042;-61
2022/10/07 00:13:48;;;;;;;7.35;4.13;;;;;;;;;;4990951;28;20624;-61
2022/10/07 00:16:20;;;;;;;10.20;4.03;;;;;;;;;;4985549;28;20027;-61
2022/10/07 00:18:47;;;;;;;9.95;3.95;;;;;;;;;;4991976;28;20050;-60
2022/10/07 00:21:15;;;;;;;12.93;4.10;;;;;;;;;;4984338;28;20022;-63
2022/10/07 00:23:42;;;;;;;9.35;4.38;;;;;;;;;;4986552;28;20388;-61
2022/10/07 00:26:10;;;;;;;10.70;4.57;;;;;;;;;;4984327;28;20034;-61
2022/10/07 00:28:36;;;;;;;9.13;4.68;;;;;;;;;;4987926;28;20035;-62
2022/10/07 00:31:08;;;;;;;8.85;4.45;;;;;;;;;;4978113;28;20029;-61
2022/10/07 00:33:36;;;;;;;11.48;4.70;;;;;;;;;;4996246;28;20101;-61
2022/10/07 00:36:07;;;;;;;8.98;4.35;;;;;;;;;;4988337;28;20124;-61
2022/10/07 00:38:33;;;;;;;12.32;4.90;;;;;;;;;;4985627;28;20294;-61
2022/10/07 00:40:59;;;;;;;9.27;4.22;;;;;;;;;;4995262;28;20488;-61
2022/10/07 00:43:30;;;;;;;8.48;4.45;;;;;;;;;;4988448;28;20089;-61
2022/10/07 00:46:02;;;;;;;11.85;4.82;;;;;;;;;;4982339;28;20038;-61
2022/10/07 00:48:30;;;;;;;12.75;5.28;;;;;;;;;;4986893;28;20065;-61
2022/10/07 00:50:59;;;;;;;8.35;4.60;;;;;;;;;;4981800;28;20018;-63
2022/10/07 00:53:29;;;;;;;8.85;4.45;;;;;;;;;;4989051;28;20042;-61
2022/10/07 00:55:56;;;;;;;10.52;4.85;;;;;;;;;;4993979;28;20473;-60
2022/10/07 00:58:23;;;;;;;10.27;4.75;;;;;;;;;;4984698;28;20041;-63
2022/10/07 01:00:49;;;;;;;15.27;4.95;;;;;;;;;;4994433;28;20403;-60
2022/10/07 01:03:15;;;;;;;10.05;5.00;;;;;;;;;;4996149;28;20114;-60
2022/10/07 01:05:42;;;;;;;10.75;5.25;;;;;;;;;;4989752;28;20393;-61
2022/10/07 01:08:10;;;;;;;12.35;5.13;;;;;;;;;;4978492;28;20390;-61
2022/10/07 01:10:54;;;;;;;9.40;5.28;;;;;;;;;;4985039;28;20086;-62
2022/10/07 01:13:30;;;;;;;10.18;4.25;;;;;;;;;;4992653;28;20046;-60
2022/10/07 01:16:36;;;;;;;8.30;4.45;;;;;;;;;;4982246;28;20469;-63
2022/10/07 01:19:05;;;;;;;17.58;4.93;;;;;;;;;;4974595;28;20143;-61
2022/10/07 01:21:54;;;;;;;13.82;5.40;;;;;;;;;;4985148;28;20077;-60
2022/10/07 01:24:41;;;;;;;12.15;4.97;;;;;;;;;;5003310;28;20034;-60
2022/10/07 01:27:14;;;;;;;12.00;4.65;;;;;;;;;;4983842;28;20026;-61
2022/10/07 01:29:54;;;;;;;11.27;4.65;;;;;;;;;;4987500;28;20034;-60
2022/10/07 01:32:41;;;;;;;10.70;4.93;;;;;;;;;;4998639;28;20121;-63
2022/10/07 01:35:17;;;;;;;7.25;5.43;;;;;;;;;;4989346;28;20042;-60
2022/10/07 01:37:49;;;;;;;10.45;4.90;;;;;;;;;;4983906;28;20053;-61
2022/10/07 01:40:20;;;;;;;10.90;5.38;;;;;;;;;;4983637;28;20434;-62
2022/10/07 01:42:48;;;;;;;15.02;5.18;;;;;;;;;;4988331;28;20052;-64
2022/10/07 01:45:20;;;;;;;11.32;5.10;;;;;;;;;;4984795;28;20535;-63
2022/10/07 01:47:49;;;;;;;10.55;5.40;;;;;;;;;;4986805;28;20141;-61
2022/10/07 01:50:19;;;;;;;9.60;4.68;;;;;;;;;;4996622;28;20117;-61
2022/10/07 01:53:05;;;;;;;11.63;4.95;;;;;;;;;;4985895;28;20038;-61
2022/10/07 01:55:46;;;;;;;12.80;4.72;;;;;;;;;;4981868;28;20105;-60
2022/10/07 01:58:31;;;;;;;10.80;4.53;;;;;;;;;;4993015;28;20038;-60
2022/10/07 02:01:11;;;;;;;13.65;5.65;;;;;;;;;;4992575;28;20026;-61
2022/10/07 02:03:50;;;;;;;12.23;5.38;;;;;;;;;;4979681;28;20034;-61
2022/10/07 02:06:41;;;;;;;12.32;5.38;;;;;;;;;;4977077;28;20037;-62
2022/10/07 02:09:24;;;;;;;11.88;4.57;;;;;;;;;;4948321;28;20045;-62
2022/10/07 02:12:03;;;;;;;7.55;4.07;;;;;;;;;;4992231;28;20027;-61
2022/10/07 02:14:39;;;;;;;7.78;4.13;;;;;;;;;;4990229;28;20401;-62
2022/10/07 02:17:13;;;;;;;8.75;4.10;;;;;;;;;;4984794;28;20093;-61
2022/10/07 02:19:46;;;;;;;8.93;4.55;;;;;;;;;;4988017;28;20042;-60
2022/10/07 02:22:16;;;;;;;11.05;5.70;;;;;;;;;;4992123;28;20152;-60
2022/10/07 02:24:43;;;;;;;11.63;5.72;;;;;;;;;;4972758;28;20039;-61
2022/10/07 02:27:12;;;;;;;12.10;5.82;;;;;;;;;;4962235;28;20034;-60
2022/10/07 02:29:42;;;;;;;9.05;5.25;;;;;;;;;;4988652;28;20113;-63
2022/10/07 02:32:17;;;;;;;11.05;5.47;;;;;;;;;;5001374;28;20043;-62
2022/10/07 02:34:47;;;;;;;9.32;4.88;;;;;;;;;;4978268;28;20043;-64
2022/10/07 02:37:18;;;;;;;14.75;5.40;;;;;;;;;;4997047;28;20809;-62
2022/10/07 02:39:45;;;;;;;10.65;5.28;;;;;;;;;;5002106;28;20072;-62
2022/10/07 02:42:20;;;;;;;7.35;4.53;;;;;;;;;;4977218;28;20038;-64
2022/10/07 02:44:50;;;;;;;20.50;6.32;;;;;;;;;;4992782;28;20038;-60
2022/10/07 02:47:19;;;;;;;8.90;5.03;;;;;;;;;;4989797;28;20029;-62
2022/10/07 02:49:49;;;;;;;15.35;5.70;;;;;;;;;;4985039;28;20038;-61
2022/10/07 02:52:17;;;;;;;7.38;4.97;;;;;;;;;;4991070;28;20192;-62
2022/10/07 02:54:51;;;;;;;10.05;5.45;;;;;;;;;;4991717;28;20121;-61
2022/10/07 02:57:20;;;;;;;12.05;4.68;;;;;;;;;;4988228;28;20035;-62
2022/10/07 02:59:49;;;;;;;15.18;5.63;;;;;;;;;;4987741;28;20142;-65
2022/10/07 03:02:23;;;;;;;8.35;5.30;;;;;;;;;;4980789;28;20035;-62
2022/10/07 03:04:50;;;;;;;11.93;5.38;;;;;;;;;;4989909;28;20112;-60
2022/10/07 03:07:16;;;;;;;15.52;5.43;;;;;;;;;;4999341;28;20046;-61
2022/10/07 03:09:43;;;;;;;16.10;5.93;;;;;;;;;;4983349;28;20034;-61
2022/10/07 03:12:11;;;;;;;14.07;5.68;;;;;;;;;;4980826;28;20030;-64
2022/10/07 03:14:38;;;;;;;10.80;5.43;;;;;;;;;;5008407;28;20038;-66
2022/10/07 03:17:06;;;;;;;10.15;5.25;;;;;;;;;;4991131;28;20026;-62
2022/10/07 03:19:32;;;;;;;7.53;5.00;;;;;;;;;;4999760;28;20143;-64
2022/10/07 03:21:59;;;;;;;18.85;6.63;;;;;;;;;;4979644;28;20384;-64
2022/10/07 03:24:25;;;;;;;14.00;6.70;;;;;;;;;;4992318;28;20254;-64
2022/10/07 03:26:52;;;;;;;13.63;5.65;;;;;;;;;;4988613;28;20105;-64
2022/10/07 03:29:18;;;;;;;9.65;5.90;;;;;;;;;;4989968;28;20066;-65
2022/10/07 03:31:45;;;;;;;12.52;6.03;;;;;;;;;;5008550;28;20088;-67
2022/10/07 03:34:11;;;;;;;13.23;5.57;;;;;;;;;;4992085;28;20046;-63
2022/10/07 03:36:39;;;;;;;13.02;5.35;;;;;;;;;;4988557;28;20031;-62
2022/10/07 03:39:07;;;;;;;9.20;5.28;;;;;;;;;;4988674;28;20042;-66
2022/10/07 03:41:33;;;;;;;7.82;5.32;;;;;;;;;;4973132;28;20027;-68
2022/10/07 03:44:00;;;;;;;11.15;5.13;;;;;;;;;;4992144;28;20065;-66
2022/10/07 03:46:28;;;;;;;15.82;5.55;;;;;;;;;;4991601;28;20085;-68
2022/10/07 03:48:54;;;;;;;7.40;5.05;;;;;;;;;;4993032;28;20425;-64
2022/10/07 03:51:20;;;;;;;28.10;6.85;;;;;;;;;;4991578;28;20063;-63
2022/10/07 03:53:47;;;;;;;15.38;6.05;;;;;;;;;;5007810;28;20045;-64
2022/10/07 03:56:14;;;;;;;13.77;6.28;;;;;;;;;;4991452;28;20038;-65
2022/10/07 03:58:42;;;;;;;10.57;5.85;;;;;;;;;;4990982;28;20030;-62
2022/10/07 04:01:15;;;;;;;16.10;6.90;;;;;;;;;;4990991;28;20022;-62
2022/10/07 04:03:48;;;;;;;19.23;6.65;;;;;;;;;;4991094;28;20515;-62
2022/10/07 04:06:13;;;;;;;19.42;7.00;;;;;;;;;;4976600;28;20035;-61
2022/10/07 04:08:40;;;;;;;15.75;7.18;;;;;;;;;;4972161;28;20066;-62
2022/10/07 04:11:07;;;;;;;17.25;7.10;;;;;;;;;;4972228;28;20430;-61
2022/10/07 04:13:36;;;;;;;18.70;6.47;;;;;;;;;;4988402;28;20072;-61
2022/10/07 04:16:08;;;;;;;23.20;8.20;;;;;;;;;;4986604;28;20110;-62
2022/10/07 04:18:35;;;;;;;27.10;8.07;;;;;;;;;;4989687;28;20038;-61
2022/10/07 04:21:01;;;;;;;14.32;6.07;;;;;;;;;;4989035;28;20436;-61
2022/10/07 04:23:29;;;;;;;18.48;7.38;;;;;;;;;;4988754;28;20104;-62
2022/10/07 04:25:55;;;;;;;20.25;7.55;;;;;;;;;;4987468;28;20456;-64
2022/10/07 04:28:24;;;;;;;22.30;8.45;;;;;;;;;;4991663;28;20105;-62
2022/10/07 04:30:56;;;;;;;20.33;7.63;;;;;;;;;;5003675;28;20540;-63
2022/10/07 04:33:29;;;;;;;11.90;6.38;;;;;;;;;;4974408;28;20034;-62
2022/10/07 04:35:56;;;;;;;15.02;7.10;;;;;;;;;;5006809;28;20034;-61
2022/10/07 04:38:23;;;;;;;10.35;6.38;;;;;;;;;;4990302;28;20076;-61
2022/10/07 04:40:50;;;;;;;10.80;6.63;;;;;;;;;;4991340;28;20445;-62
2022/10/07 04:43:26;;;;;;;16.10;6.13;;;;;;;;;;5007638;28;20026;-61
2022/10/07 04:46:06;;;;;;;20.08;7.13;;;;;;;;;;5006833;28;20030;-62
2022/10/07 04:48:35;;;;;;;15.82;7.70;;;;;;;;;;4989381;28;20050;-63
2022/10/07 04:51:06;;;;;;;15.57;6.95;;;;;;;;;;5007892;28;20027;-62
2022/10/07 04:53:35;;;;;;;28.00;8.25;;;;;;;;;;5005089;28;20038;-62
2022/10/07 04:56:02;;;;;;;22.17;7.80;;;;;;;;;;4990698;28;20019;-63
2022/10/07 04:58:29;;;;;;;14.60;7.45;;;;;;;;;;5004802;28;20566;-62
2022/10/07 05:00:56;;;;;;;18.25;7.45;;;;;;;;;;4992114;28;20034;-62
2022/10/07 05:03:25;;;;;;;21.85;8.88;;;;;;;;;;5006921;28;20455;-62
2022/10/07 05:05:53;;;;;;;37.50;9.88;;;;;;;;;;4991264;28;20026;-62
2022/10/07 05:08:23;;;;;;;22.58;8.40;;;;;;;;;;5007269;28;20050;-62
2022/10/07 05:10:57;;;;;;;25.30;8.80;;;;;;;;;;4990933;28;20349;-61
2022/10/07 05:13:25;;;;;;;28.83;9.68;;;;;;;;;;5006959;28;20034;-61
2022/10/07 05:15:55;;;;;;;33.60;9.85;;;;;;;;;;4991067;28;20022;-61
2022/10/07 05:18:23;;;;;;;19.70;8.00;;;;;;;;;;4984974;28;20030;-61
2022/10/07 05:20:50;;;;;;;22.17;7.63;;;;;;;;;;4992065;28;20026;-61
2022/10/07 05:23:18;;;;;;;20.65;8.18;;;;;;;;;;4992273;28;20034;-67
2022/10/07 05:25:45;;;;;;;28.45;12.00;;;;;;;;;;5008230;28;20126;-67
2022/10/07 05:28:13;;;;;;;34.50;12.13;;;;;;;;;;4975920;28;20122;-70
2022/10/07 05:30:40;;;;;;;28.25;13.57;;;;;;;;;;4977622;28;20032;-67
2022/10/07 05:33:08;;;;;;;25.80;11.27;;;;;;;;;;4990946;28;20042;-67
2022/10/07 05:35:35;;;;;;;24.17;9.02;;;;;;;;;;4994476;28;20027;-66
2022/10/07 05:38:01;;;;;;;24.02;9.05;;;;;;;;;;5010430;28;20092;-67
2022/10/07 05:40:27;;;;;;;27.85;8.73;;;;;;;;;;4994408;28;20032;-67
2022/10/07 05:42:54;;;;;;;16.90;7.15;;;;;;;;;;4994357;28;20037;-67
2022/10/07 05:45:21;;;;;;;21.17;7.85;;;;;;;;;;5010623;28;20035;-67
2022/10/07 05:47:47;;;;;;;16.88;7.35;;;;;;;;;;4995585;28;20073;-67
2022/10/07 05:50:13;;;;;;;27.05;8.10;;;;;;;;;;4994254;28;20026;-67
2022/10/07 05:52:39;;;;;;;24.95;7.82;;;;;;;;;;5010421;28;20121;-68
2022/10/07 05:55:06;;;;;;;13.95;7.20;;;;;;;;;;4994108;28;20026;-68
2022/10/07 05:57:32;;;;;;;22.88;7.53;;;;;;;;;;4995072;28;20032;-67
2022/10/07 05:59:58;;;;;;;22.75;7.15;;;;;;;;;;4990876;28;20433;-68
2022/10/07 06:02:24;;;;;;;19.55;6.70;;;;;;;;;;4989812;28;20084;-69
2022/10/07 06:04:50;;;;;;;21.83;6.78;;;;;;;;;;4989696;28;20022;-69
2022/10/07 06:07:17;;;;;;;24.05;7.53;;;;;;;;;;5007079;28;20035;-69
2022/10/07 06:15:13;;;;;;;14.30;6.07;;;;;;;;;;4990505;28;20031;-67
2022/10/07 06:17:43;;;;;;;19.35;5.97;;;;;;;;;;4993555;28;20468;-67
2022/10/07 06:20:13;;;;;;;9.40;4.85;;;;;;;;;;4993750;28;20493;-67
2022/10/07 06:22:39;;;;;;;12.57;5.68;;;;;;;;;;4992590;28;20030;-69
2022/10/07 06:25:05;;;;;;;14.75;5.53;;;;;;;;;;4997667;28;20544;-67
2022/10/07 06:27:33;;;;;;;8.85;4.70;;;;;;;;;;4989507;28;20026;-68
2022/10/07 06:29:59;;;;;;;12.07;4.82;;;;;;;;;;4990600;28;20069;-66
2022/10/07 06:32:28;;;;;;;19.00;5.35;;;;;;;;;;4994933;28;20443;-69
2022/10/07 06:34:54;;;;;;;12.32;4.97;;;;;;;;;;5009438;28;20077;-69
2022/10/07 06:37:21;;;;;;;9.70;4.97;;;;;;;;;;4990416;28;20029;-68
2022/10/07 06:39:47;;;;;;;16.63;6.32;;;;;;;;;;4994479;28;20569;-69
2022/10/07 06:42:13;;;;;;;16.52;6.78;;;;;;;;;;5009836;28;20109;-67
2022/10/07 06:45:01;;;;;;;18.70;6.53;;;;;;;;;;4993265;28;20038;-65
2022/10/07 06:47:27;;;;;;;15.77;6.10;;;;;;;;;;5009646;28;20030;-67
2022/10/07 06:49:53;;;;;;;13.93;5.25;;;;;;;;;;4989539;28;20072;-69
2022/10/07 06:52:19;;;;;;;11.32;3.90;;;;;;;;;;5009541;28;20224;-67
2022/10/07 06:54:46;;;;;;;8.75;3.70;;;;;;;;;;4993031;28;20507;-69
2022/10/07 06:57:12;;;;;;;10.02;3.97;;;;;;;;;;4991660;28;20482;-69
2022/10/07 06:59:38;;;;;;;9.18;3.83;;;;;;;;;;4991886;28;20041;-68
2022/10/07 07:02:10;;;;;;;12.73;5.00;;;;;;;;;;4992210;28;20398;-68
2022/10/07 07:04:39;;;;;;;12.02;3.78;;;;;;;;;;5007426;28;20141;-67
2022/10/07 07:07:05;;;;;;;8.23;3.65;;;;;;;;;;4992278;28;20057;-67
2022/10/07 07:09:32;;;;;;;6.68;3.25;;;;;;;;;;4987418;28;20390;-66
2022/10/07 07:11:59;;;;;;;6.40;3.28;;;;;;;;;;5008568;28;20076;-70
2022/10/07 07:14:33;;;;;;;12.48;3.97;;;;;;;;;;5008817;28;20503;-67
2022/10/07 07:17:07;;;;;;;10.85;3.65;;;;;;;;;;5008351;28;20061;-66
2022/10/07 07:19:33;;;;;;;8.90;3.47;;;;;;;;;;4991902;28;20042;-67
2022/10/07 07:21:59;;;;;;;8.90;3.30;;;;;;;;;;5006951;28;20027;-67
2022/10/07 07:24:26;;;;;;;13.68;3.72;;;;;;;;;;4982221;28;20489;-67
2022/10/07 07:26:52;;;;;;;7.13;3.00;;;;;;;;;;5007934;28;20038;-67
2022/10/07 07:29:19;;;;;;;10.68;3.47;;;;;;;;;;5008072;28;20172;-66
2022/10/07 07:31:56;;;;;;;6.88;3.33;;;;;;;;;;4989743;28;20164;-67
2022/10/07 07:34:24;;;;;;;7.03;3.10;;;;;;;;;;4985243;28;20696;-68
2022/10/07 07:36:51;;;;;;;5.95;3.53;;;;;;;;;;4990720;28;20038;-67
2022/10/07 07:39:19;;;;;;;14.98;3.83;;;;;;;;;;4991861;28;20400;-66
2022/10/07 07:41:51;;;;;;;9.83;4.37;;;;;;;;;;5007629;28;20084;-67
2022/10/07 07:44:20;;;;;;;8.40;3.42;;;;;;;;;;5007913;28;20331;-69
2022/10/07 07:46:50;;;;;;;6.63;3.35;;;;;;;;;;4989551;28;20023;-68
2022/10/07 07:49:19;;;;;;;5.72;3.05;;;;;;;;;;4983255;28;20057;-67
2022/10/07 07:51:46;;;;;;;5.25;3.35;;;;;;;;;;4991584;28;20022;-69
2022/10/07 07:54:19;;;;;;;6.20;3.53;;;;;;;;;;5008248;28;20354;-66
2022/10/07 07:56:47;;;;;;;6.90;3.08;;;;;;;;;;4991535;28;20034;-65
2022/10/07 07:59:13;;;;;;;5.60;3.15;;;;;;;;;;4991012;28;20025;-66
2022/10/07 08:01:42;;;;;;;8.10;3.28;;;;;;;;;;4988442;28;20034;-65
2022/10/07 08:04:09;;;;;;;9.75;3.50;;;;;;;;;;4990845;28;20526;-65
2022/10/07 08:06:36;;;;;;;8.27;3.28;;;;;;;;;;5007938;28;20133;-66
2022/10/07 08:09:04;;;;;;;9.43;3.80;;;;;;;;;;5005783;28;20037;-66
2022/10/07 08:11:32;;;;;;;8.65;3.80;;;;;;;;;;4990767;28;20504;-66
2022/10/07 08:14:02;;;;;;;7.63;2.97;;;;;;;;;;4986409;28;20397;-67
2022/10/07 08:16:29;;;;;;;7.28;3.65;;;;;;;;;;5006433;28;20033;-66
2022/10/07 08:18:57;;;;;;;4.80;2.63;;;;;;;;;;4989791;28;20034;-66
2022/10/07 08:21:26;;;;;;;6.25;3.58;;;;;;;;;;4990829;28;20034;-67
2022/10/07 08:23:57;;;;;;;8.63;4.13;;;;;;;;;;4991564;28;20045;-68
2022/10/07 08:26:29;;;;;;;13.25;3.20;;;;;;;;;;4988491;28;20030;-70
2022/10/07 08:28:57;;;;;;;7.88;3.28;;;;;;;;;;5007471;28;20192;-68
2022/10/07 08:31:28;;;;;;;12.35;3.08;;;;;;;;;;4991031;28;20121;-69
2022/10/07 08:33:57;;;;;;;4.28;3.10;;;;;;;;;;4991680;28;20113;-68
2022/10/07 08:36:25;;;;;;;4.00;2.65;;;;;;;;;;4989567;28;20458;-67
2022/10/07 08:38:51;;;;;;;4.90;2.38;;;;;;;;;;4988659;28;20469;-69
2022/10/07 08:41:41;;;;;;;4.40;3.03;;;;;;;;;;4991541;28;20326;-69
2022/10/07 08:44:22;;;;;;;5.90;2.83;;;;;;;;;;4989706;28;20081;-68
2022/10/07 08:47:23;;;;;;;4.47;2.38;;;;;;;;;;4990260;28;20065;-67
2022/10/07 08:50:08;;;;;;;9.93;4.20;;;;;;;;;;4976650;28;20122;-68
2022/10/07 08:52:40;;;;;;;6.20;2.90;;;;;;;;;;4990684;28;20030;-68
2022/10/07 08:55:30;;;;;;;8.88;2.50;;;;;;;;;;4989441;28;20113;-68
2022/10/07 08:58:14;;;;;;;4.07;2.70;;;;;;;;;;4991063;28;20035;-69
2022/10/07 09:00:55;;;;;;;5.82;2.90;;;;;;;;;;4994084;28;20408;-67
2022/10/07 09:03:22;;;;;;;5.63;2.83;;;;;;;;;;4992970;28;20039;-68
2022/10/07 09:05:49;;;;;;;5.25;3.05;;;;;;;;;;4996336;28;20145;-67
2022/10/07 09:08:29;;;;;;;6.47;2.38;;;;;;;;;;4995085;28;20106;-68
2022/10/07 09:11:14;;;;;;;5.70;2.83;;;;;;;;;;4995657;28;20030;-71
2022/10/07 09:13:46;;;;;;;8.80;3.38;;;;;;;;;;4995520;28;20069;-68
2022/10/07 09:16:23;;;;;;;5.72;3.00;;;;;;;;;;4993170;28;20109;-68
2022/10/07 09:18:59;;;;;;;11.40;3.20;;;;;;;;;;4991685;28;20092;-66
2022/10/07 09:22:08;;;;;;;12.45;4.20;;;;;;;;;;4990907;28;20370;-67
2022/10/07 09:24:34;;;;;;;6.13;3.95;;;;;;;;;;4983983;28;20046;-67
2022/10/07 09:27:06;;;;;;;9.57;4.30;;;;;;;;;;4992090;28;20030;-69
2022/10/07 09:29:32;;;;;;;6.85;4.40;;;;;;;;;;4983940;28;20036;-65
2022/10/07 09:31:58;;;;;;;8.68;4.18;;;;;;;;;;4995062;28;20105;-67
2022/10/07 09:34:29;;;;;;;9.55;4.75;;;;;;;;;;4993279;28;20034;-66
2022/10/07 09:37:08;;;;;;;8.57;4.47;;;;;;;;;;4994157;28;20042;-67
2022/10/07 09:39:34;;;;;;;6.97;3.95;;;;;;;;;;4994624;28;20053;-68
2022/10/07 09:42:03;;;;;;;8.27;4.38;;;;;;;;;;5007551;28;20022;-66
2022/10/07 09:44:29;;;;;;;7.05;4.10;;;;;;;;;;4989822;28;20050;-68
2022/10/07 09:46:58;;;;;;;7.30;3.60;;;;;;;;;;4993023;28;20037;-68
2022/10/07 09:49:27;;;;;;;6.78;3.20;;;;;;;;;;4994385;28;20038;-65
2022/10/07 09:52:15;;;;;;;7.03;2.80;;;;;;;;;;4994428;28;20026;-68
2022/10/07 09:54:46;;;;;;;6.20;3.22;;;;;;;;;;4983895;28;20042;-66
2022/10/07 09:57:25;;;;;;;7.00;3.25;;;;;;;;;;4975361;28;20038;-66
2022/10/07 10:00:11;;;;;;;5.53;3.90;;;;;;;;;;4975030;28;20111;-66
2022/10/07 10:02:48;;;;;;;11.38;3.20;;;;;;;;;;4975038;28;20031;-65
2022/10/07 10:05:32;;;;;;;11.07;4.38;;;;;;;;;;4975032;28;20819;-69
2022/10/07 10:08:02;;;;;;;12.88;3.97;;;;;;;;;;4988070;28;20117;-65
2022/10/07 10:10:32;;;;;;;6.13;3.63;;;;;;;;;;4994085;28;20034;-67
2022/10/07 10:13:00;;;;;;;4.88;3.20;;;;;;;;;;4989584;28;20042;-67
2022/10/07 10:15:35;;;;;;;7.07;3.40;;;;;;;;;;4994369;28;20030;-67
2022/10/07 10:18:22;;;;;;;10.55;3.88;;;;;;;;;;4992690;28;20065;-68
2022/10/07 10:20:48;;;;;;;6.38;4.18;;;;;;;;;;4993119;28;20083;-67
2022/10/07 10:23:32;;;;;;;5.18;2.90;;;;;;;;;;4994021;28;20046;-66
2022/10/07 10:26:25;;;;;;;7.88;3.15;;;;;;;;;;5009181;28;20081;-67
2022/10/07 10:29:31;;;;;;;5.72;2.50;;;;;;;;;;4992755;28;20038;-68
2022/10/07 10:31:59;;;;;;;5.60;2.30;;;;;;;;;;4994883;28;20469;-66
2022/10/07 10:34:41;;;;;;;6.50;2.65;;;;;;;;;;4994647;28;20089;-67
2022/10/07 10:37:20;;;;;;;5.65;2.47;;;;;;;;;;4994218;28;20042;-67
2022/10/07 10:39:51;;;;;;;3.45;2.33;;;;;;;;;;4994171;28;20030;-66
2022/10/07 10:42:24;;;;;;;6.38;2.58;;;;;;;;;;4994157;28;20529;-65
2022/10/07 10:45:06;;;;;;;6.07;2.40;;;;;;;;;;4993646;28;20392;-64
2022/10/07 10:47:35;;;;;;;4.35;2.03;;;;;;;;;;4993731;28;20034;-66
2022/10/07 10:50:23;;;;;;;4.97;2.20;;;;;;;;;;4992171;28;20030;-66
2022/10/07 10:52:58;;;;;;;4.75;2.30;;;;;;;;;;5009334;28;20041;-67
2022/10/07 10:56:05;;;;;;;6.25;2.15;;;;;;;;;;4993380;28;20034;-66
2022/10/07 10:58:46;;;;;;;8.50;2.53;;;;;;;;;;4993208;28;20045;-67
2022/10/07 11:01:24;;;;;;;5.18;2.10;;;;;;;;;;4994001;28;20030;-67
2022/10/07 11:03:53;;;;;;;6.03;2.10;;;;;;;;;;4992643;28;20062;-67
2022/10/07 11:06:20;;;;;;;3.88;1.90;;;;;;;;;;4992276;28;20529;-65
2022/10/07 11:08:48;;;;;;;7.03;2.45;;;;;;;;;;4993129;28;20031;-67
2022/10/07 11:11:19;;;;;;;5.13;2.38;;;;;;;;;;4992290;28;20066;-68
2022/10/07 11:13:53;;;;;;;5.78;2.60;;;;;;;;;;4993035;28;20453;-69
2022/10/07 11:16:43;;;;;;;8.07;2.22;;;;;;;;;;4993979;28;20042;-68
2022/10/07 11:19:19;;;;;;;3.53;1.90;;;;;;;;;;4993871;28;20031;-65
2022/10/07 11:21:51;;;;;;;2.97;1.60;;;;;;;;;;4992929;28;20069;-67
2022/10/07 11:24:31;;;;;;;5.25;1.73;;;;;;;;;;4993129;28;20026;-66
2022/10/07 11:27:19;;;;;;;3.65;1.63;;;;;;;;;;4993182;28;20113;-66
2022/10/07 11:29:54;;;;;;;4.00;1.80;;;;;;;;;;4992358;28;20030;-68
2022/10/07 11:32:28;;;;;;;3.05;1.70;;;;;;;;;;4993745;28;20058;-66
2022/10/07 11:35:22;;;;;;;4.88;1.77;;;;;;;;;;4992762;28;20048;-67
2022/10/07 11:37:59;;;;;;;3.20;1.60;;;;;;;;;;4993543;28;20045;-67
2022/10/07 11:40:29;;;;;;;5.03;1.85;;;;;;;;;;4992951;28;20034;-68
2022/10/07 11:43:03;;;;;;;8.48;1.80;;;;;;;;;;5007972;28;20058;-66
2022/10/07 11:45:42;;;;;;;3.85;1.90;;;;;;;;;;4993374;28;20027;-66
2022/10/07 11:48:16;;;;;;;7.03;2.10;;;;;;;;;;4993396;28;20030;-66
2022/10/07 11:50:54;;;;;;;4.57;1.88;;;;;;;;;;4992511;28;20537;-66
2022/10/07 11:53:25;;;;;;;4.18;1.70;;;;;;;;;;4993085;28;20115;-67
2022/10/07 11:56:00;;;;;;;4.47;1.80;;;;;;;;;;4993055;28;20039;-70
2022/10/07 11:58:33;;;;;;;5.03;1.75;;;;;;;;;;4992996;28;20411;-68
2022/10/07 12:01:24;;;;;;;2.95;1.70;;;;;;;;;;4993691;28;20545;-66
2022/10/07 12:03:53;;;;;;;4.40;1.67;;;;;;;;;;5007628;28;20058;-66
2022/10/07 12:06:19;;;;;;;2.83;1.58;;;;;;;;;;4992912;28;20027;-66
2022/10/07 12:08:45;;;;;;;9.50;2.67;;;;;;;;;;4993006;28;20066;-66
2022/10/07 12:11:11;;;;;;;1.63;1.30;;;;;;;;;;4992219;28;20346;-67
2022/10/07 12:13:44;;;;;;;4.68;1.40;;;;;;;;;;4992056;28;20038;-67
2022/10/07 12:16:30;;;;;;;4.63;1.63;;;;;;;;;;4992853;28;20400;-68
2022/10/07 12:19:06;;;;;;;9.30;1.95;;;;;;;;;;4992668;28;20041;-66
2022/10/07 12:22:03;;;;;;;4.25;1.45;;;;;;;;;;5007197;28;20069;-66
2022/10/07 12:24:34;;;;;;;5.57;1.55;;;;;;;;;;4993155;28;20040;-67
2022/10/07 12:27:21;;;;;;;4.35;1.77;;;;;;;;;;4993512;28;20081;-66
2022/10/07 12:30:01;;;;;;;6.22;1.90;;;;;;;;;;4993579;28;20117;-67
2022/10/07 12:32:38;;;;;;;9.55;1.60;;;;;;;;;;4993357;28;20037;-66
2022/10/07 12:35:33;;;;;;;5.53;1.38;;;;;;;;;;4992994;28;20037;-67
2022/10/07 12:38:22;;;;;;;2.53;1.35;;;;;;;;;;4993630;28;20520;-67
2022/10/07 12:41:24;;;;;;;1.17;0.82;;;;;;;;;;4993148;28;20042;-68
2022/10/07 12:44:18;;;;;;;3.30;1.02;;;;;;;;;;4986166;28;20050;-65
2022/10/07 12:46:49;;;;;;;2.75;1.20;;;;;;;;;;4992622;28;20031;-66
2022/10/07 12:49:30;;;;;;;2.63;1.00;;;;;;;;;;4993316;28;20093;-67
2022/10/07 12:52:11;;;;;;;2.58;0.80;;;;;;;;;;4993271;28;20034;-66
2022/10/07 12:54:59;;;;;;;1.75;0.90;;;;;;;;;;4992017;28;20034;-66
2022/10/07 12:57:33;;;;;;;2.38;0.85;;;;;;;;;;4975608;28;20527;-67
2022/10/07 13:00:11;;;;;;;1.40;0.90;;;;;;;;;;5008300;28;20499;-67
2022/10/07 13:02:52;;;;;;;2.30;1.00;;;;;;;;;;5008272;28;20057;-65
2022/10/07 13:05:30;;;;;;;1.63;1.00;;;;;;;;;;4993201;28;20515;-67
2022/10/07 13:08:40;;;;;;;1.13;0.80;;;;;;;;;;4993061;28;20051;-67
2022/10/07 13:11:25;;;;;;;2.20;0.80;;;;;;;;;;4984850;28;20050;-66
2022/10/07 13:14:22;;;;;;;3.28;1.45;;;;;;;;;;4992911;28;20034;-67
2022/10/07 13:17:28;;;;;;;1.15;0.90;;;;;;;;;;4993147;28;20255;-65
2022/10/07 13:20:22;;;;;;;1.02;0.82;;;;;;;;;;4952190;29;20036;-66
2022/10/07 13:22:48;;;;;;;0.95;0.70;;;;;;;;;;4977876;28;20072;-66
2022/10/07 13:25:20;;;;;;;2.88;1.00;;;;;;;;;;4992751;28;20085;-65
2022/10/07 13:27:54;;;;;;;2.27;1.00;;;;;;;;;;5008051;28;20077;-66
2022/10/07 13:30:39;;;;;;;2.17;1.00;;;;;;;;;;4992999;28;20030;-67
2022/10/07 13:33:34;;;;;;;2.40;1.00;;;;;;;;;;4992897;28;20058;-67
2022/10/07 13:36:15;;;;;;;1.95;1.17;;;;;;;;;;4984186;28;20489;-67
2022/10/07 13:38:43;;;;;;;1.42;0.80;;;;;;;;;;4992594;28;20026;-66
2022/10/07 13:41:23;;;;;;;4.32;0.88;;;;;;;;;;4992641;28;20058;-66
2022/10/07 13:44:01;;;;;;;1.08;0.75;;;;;;;;;;4993062;28;20040;-67
2022/10/07 13:46:30;;;;;;;2.55;0.75;;;;;;;;;;4994930;28;20496;-68
2022/10/07 13:48:57;;;;;;;0.77;0.73;;;;;;;;;;4996504;28;20022;-67
2022/10/07 13:51:30;;;;;;;1.75;0.90;;;;;;;;;;4996430;28;20125;-65
2022/10/07 13:53:58;;;;;;;1.33;0.90;;;;;;;;;;4996395;28;20089;-68
2022/10/07 13:56:36;;;;;;;2.65;1.10;;;;;;;;;;4996329;28;20041;-68
2022/10/07 13:59:05;;;;;;;2.13;1.00;;;;;;;;;;4996359;28;20030;-67
2022/10/07 14:01:36;;;;;;;8.25;1.48;;;;;;;;;;4995885;28;20030;-66
2022/10/07 14:04:31;;;;;;;1.80;1.10;;;;;;;;;;4983338;28;20030;-66
2022/10/07 14:07:11;;;;;;;4.38;1.70;;;;;;;;;;4992031;28;20512;-66
2022/10/07 14:09:45;;;;;;;5.50;1.50;;;;;;;;;;4994224;28;20038;-65
2022/10/07 14:12:28;;;;;;;10.95;1.52;;;;;;;;;;4994192;28;20037;-67
2022/10/07 14:15:01;;;;;;;2.03;1.30;;;;;;;;;;4975962;28;20070;-66
2022/10/07 14:17:48;;;;;;;2.92;1.20;;;;;;;;;;4976020;28;20034;-65
2022/10/07 14:20:32;;;;;;;2.85;1.33;;;;;;;;;;4974449;28;20462;-65
2022/10/07 14:23:07;;;;;;;4.55;1.40;;;;;;;;;;4976252;28;20030;-64
2022/10/07 14:25:57;;;;;;;4.43;1.60;;;;;;;;;;4988745;28;20541;-66
2022/10/07 14:28:23;;;;;;;4.40;1.40;;;;;;;;;;4984257;28;20536;-65
2022/10/07 14:37:04;;;;;;;3.10;1.70;;;;;;;;;;4992972;28;20092;-65
2022/10/07 14:39:42;;;;;;;4.18;1.40;;;;;;;;;;4977066;28;20034;-66
2022/10/07 14:42:31;;;;;;;8.30;1.52;;;;;;;;;;4973412;28;20515;-66
2022/10/07 14:44:57;;;;;;;4.20;1.50;;;;;;;;;;4972317;28;20035;-66
2022/10/07 14:47:26;;;;;;;5.57;1.40;;;;;;;;;;4987764;28;20030;-66
2022/10/07 14:49:55;;;;;;;2.40;1.58;;;;;;;;;;4992702;28;20038;-65
2022/10/07 14:52:50;;;;;;;4.65;1.48;;;;;;;;;;4992177;28;20105;-66
2022/10/07 14:55:25;;;;;;;5.13;1.42;;;;;;;;;;4992885;28;20112;-65
2022/10/07 14:57:51;;;;;;;3.35;1.65;;;;;;;;;;4993799;28;20041;-66
2022/10/07 15:00:20;;;;;;;2.88;1.30;;;;;;;;;;4994142;28;20022;-65
2022/10/07 15:02:48;;;;;;;2.92;1.70;;;;;;;;;;4992670;28;20069;-64
2022/10/07 15:05:15;;;;;;;3.72;1.50;;;;;;;;;;4991937;28;20038;-66
2022/10/07 15:07:41;;;;;;;2.65;1.30;;;;;;;;;;4994566;28;20040;-66
2022/10/07 15:10:22;;;;;;;3.42;1.60;;;;;;;;;;4994489;28;20027;-67
2022/10/07 15:12:48;;;;;;;3.28;1.50;;;;;;;;;;4994509;28;20085;-65
2022/10/07 15:15:14;;;;;;;5.20;1.50;;;;;;;;;;4994453;28;20105;-65
2022/10/07 15:17:41;;;;;;;6.47;1.23;;;;;;;;;;4993927;28;20455;-64
2022/10/07 15:20:10;;;;;;;4.78;1.48;;;;;;;;;;4993916;28;20026;-67
2022/10/07 15:22:37;;;;;;;2.53;1.50;;;;;;;;;;4994302;28;20045;-66
2022/10/07 15:25:08;;;;;;;6.72;1.30;;;;;;;;;;4994007;28;20117;-66